createdAt,value
2023-05-09T00:01:25.789Z,11.60
2023-05-09T00:03:30.545Z,11.60
2023-05-09T00:05:25.733Z,11.60
2023-05-09T00:07:25.791Z,11.60
2023-05-09T00:09:25.695Z,11.50
2023-05-09T00:11:25.746Z,11.40
2023-05-09T00:13:25.726Z,11.40
2023-05-09T00:15:25.707Z,11.40
2023-05-09T00:17:25.743Z,11.40
2023-05-09T00:19:25.834Z,11.20
2023-05-09T00:21:25.759Z,11.20
2023-05-09T00:23:25.794Z,11.20
2023-05-09T00:25:25.793Z,11.20
2023-05-09T00:27:28.650Z,11.20
2023-05-09T00:29:25.804Z,11.10
2023-05-09T00:31:25.828Z,11.10
2023-05-09T00:33:25.730Z,11.10
2023-05-09T00:35:25.897Z,11.10
2023-05-09T00:37:25.711Z,11.20
2023-05-09T00:39:25.715Z,11.20
2023-05-09T00:41:25.712Z,11.20
2023-05-09T00:43:25.890Z,11.20
2023-05-09T00:45:25.689Z,11.20
2023-05-09T00:47:25.793Z,11.20
2023-05-09T00:49:25.844Z,11.20
2023-05-09T00:51:25.705Z,11.20
2023-05-09T00:53:28.832Z,11.20
2023-05-09T00:55:25.817Z,11.30
2023-05-09T00:57:25.781Z,11.30
2023-05-09T00:59:25.863Z,11.30
2023-05-09T01:01:25.883Z,11.30
2023-05-09T01:03:25.788Z,11.20
2023-05-09T01:05:25.744Z,11.20
2023-05-09T01:07:25.730Z,11.20
2023-05-09T01:09:25.913Z,11.20
2023-05-09T01:11:25.774Z,11.20
2023-05-09T01:13:28.094Z,11.20
2023-05-09T01:17:25.918Z,11.20
2023-05-09T01:19:25.827Z,11.20
2023-05-09T01:21:27.403Z,11.20
2023-05-09T01:23:25.693Z,11.10
2023-05-09T01:25:25.763Z,11.10
2023-05-09T01:27:25.724Z,11.10
2023-05-09T01:29:25.800Z,11.00
2023-05-09T01:31:25.721Z,11.00
2023-05-09T01:33:25.854Z,10.90
2023-05-09T01:35:25.889Z,10.80
2023-05-09T01:37:36.670Z,10.80
2023-05-09T01:39:25.986Z,10.80
2023-05-09T01:41:25.913Z,10.80
2023-05-09T01:43:40.574Z,10.70
2023-05-09T01:45:40.376Z,10.70
2023-05-09T01:47:40.518Z,10.60
2023-05-09T01:49:40.550Z,10.70
2023-05-09T01:51:42.254Z,10.70
2023-05-09T01:53:40.382Z,10.70
2023-05-09T01:55:40.409Z,10.70
2023-05-09T01:57:40.438Z,10.60
2023-05-09T01:59:40.427Z,10.60
2023-05-09T02:01:40.422Z,10.60
2023-05-09T02:03:40.368Z,10.60
2023-05-09T02:05:42.575Z,10.60
2023-05-09T02:07:40.371Z,10.60
2023-05-09T02:09:40.458Z,10.60
2023-05-09T02:11:40.399Z,10.60
2023-05-09T02:13:40.406Z,10.60
2023-05-09T02:15:40.818Z,10.60
2023-05-09T02:17:40.367Z,10.60
2023-05-09T02:19:40.356Z,10.60
2023-05-09T02:21:40.400Z,10.60
2023-05-09T02:23:40.380Z,10.70
2023-05-09T02:25:43.346Z,10.80
2023-05-09T02:27:40.528Z,10.80
2023-05-09T02:29:40.530Z,10.80
2023-05-09T02:31:40.479Z,10.80
2023-05-09T02:33:40.433Z,10.80
2023-05-09T02:35:40.409Z,10.80
2023-05-09T02:37:40.539Z,10.80
2023-05-09T02:39:40.638Z,10.80
2023-05-09T02:41:40.393Z,10.80
2023-05-09T02:43:40.379Z,10.80
2023-05-09T02:45:40.621Z,10.80
2023-05-09T02:47:40.496Z,10.80
2023-05-09T02:49:44.246Z,10.80
2023-05-09T02:51:40.363Z,10.80
2023-05-09T02:53:40.354Z,10.80
2023-05-09T02:55:40.358Z,10.80
2023-05-09T02:57:40.416Z,10.80
2023-05-09T02:59:40.404Z,10.80
2023-05-09T03:01:40.578Z,10.80
2023-05-09T03:03:40.510Z,10.80
2023-05-09T03:05:40.416Z,10.80
2023-05-09T03:07:40.382Z,10.80
2023-05-09T03:09:41.310Z,10.80
2023-05-09T03:11:40.448Z,10.80
2023-05-09T03:13:40.377Z,10.70
2023-05-09T03:15:40.434Z,10.70
2023-05-09T03:18:40.490Z,10.60
2023-05-09T03:20:40.438Z,10.60
2023-05-09T03:22:40.392Z,10.50
2023-05-09T03:24:40.470Z,10.40
2023-05-09T03:26:40.474Z,10.40
2023-05-09T03:28:40.465Z,10.40
2023-05-09T03:30:40.460Z,10.30
2023-05-09T03:32:40.391Z,10.30
2023-05-09T03:34:40.571Z,10.20
2023-05-09T03:36:40.418Z,10.10
2023-05-09T03:38:40.483Z,10.10
2023-05-09T03:40:40.426Z,10.10
2023-05-09T03:42:40.496Z,10.20
2023-05-09T03:44:40.664Z,10.10
2023-05-09T03:46:40.694Z,10.00
2023-05-09T03:48:40.446Z,10.00
2023-05-09T03:50:40.663Z,10.00
2023-05-09T03:52:40.530Z,10.00
2023-05-09T03:54:40.422Z,9.90
2023-05-09T03:56:40.535Z,9.90
2023-05-09T03:58:43.550Z,9.90
2023-05-09T04:00:40.605Z,9.80
2023-05-09T04:02:40.709Z,9.80
2023-05-09T04:04:40.441Z,9.90
2023-05-09T04:06:40.670Z,9.90
2023-05-09T04:08:40.449Z,9.80
2023-05-09T04:10:40.679Z,9.90
2023-05-09T04:12:40.487Z,10.00
2023-05-09T04:14:40.579Z,10.10
2023-05-09T04:16:40.652Z,10.10
2023-05-09T04:18:40.732Z,10.20
2023-05-09T04:20:40.419Z,10.20
2023-05-09T04:22:44.838Z,10.40
2023-05-09T04:24:40.512Z,10.40
2023-05-09T04:26:41.481Z,10.40
2023-05-09T04:28:40.679Z,10.50
2023-05-09T04:30:40.534Z,10.50
2023-05-09T04:32:40.565Z,10.60
2023-05-09T04:34:44.123Z,10.60
2023-05-09T04:36:40.465Z,10.60
2023-05-09T04:38:40.474Z,10.60
2023-05-09T04:40:40.509Z,10.60
2023-05-09T04:42:40.657Z,10.60
2023-05-09T04:44:40.505Z,10.60
2023-05-09T04:46:40.532Z,10.70
2023-05-09T04:48:40.507Z,10.70
2023-05-09T04:50:40.510Z,10.70
2023-05-09T04:52:40.578Z,10.60
2023-05-09T04:54:40.568Z,10.60
2023-05-09T04:56:40.515Z,10.60
2023-05-09T04:58:40.514Z,10.60
2023-05-09T05:00:45.398Z,10.60
2023-05-09T05:02:40.536Z,10.60
2023-05-09T05:04:40.563Z,10.60
2023-05-09T05:06:40.492Z,10.60
2023-05-09T05:08:40.601Z,10.70
2023-05-09T05:10:40.687Z,10.70
2023-05-09T05:12:40.798Z,10.70
2023-05-09T05:14:40.616Z,10.70
2023-05-09T05:16:40.648Z,10.70
2023-05-09T05:18:40.526Z,10.70
2023-05-09T05:20:40.528Z,10.80
2023-05-09T05:22:40.747Z,10.80
2023-05-09T05:24:40.584Z,10.80
2023-05-09T05:26:40.697Z,10.80
2023-05-09T05:28:40.515Z,10.80
2023-05-09T05:30:40.583Z,10.80
2023-05-09T05:32:40.687Z,10.80
2023-05-09T05:34:40.515Z,10.80
2023-05-09T05:36:40.529Z,10.80
2023-05-09T05:38:40.697Z,10.80
2023-05-09T05:40:40.555Z,10.80
2023-05-09T05:42:40.608Z,10.80
2023-05-09T05:44:40.573Z,10.80
2023-05-09T05:46:40.610Z,10.80
2023-05-09T05:48:40.505Z,10.80
2023-05-09T05:50:40.563Z,10.80
2023-05-09T05:52:40.550Z,10.80
2023-05-09T05:54:40.566Z,10.80
2023-05-09T05:56:41.782Z,10.80
2023-05-09T05:58:40.487Z,10.80
2023-05-09T06:00:42.295Z,10.80
2023-05-09T06:02:43.777Z,10.70
2023-05-09T06:04:40.679Z,10.80
2023-05-09T06:06:40.648Z,10.80
2023-05-09T06:08:40.744Z,10.80
2023-05-09T06:10:40.554Z,10.90
2023-05-09T06:12:40.727Z,10.90
2023-05-09T06:14:40.742Z,11.00
2023-05-09T06:16:40.571Z,11.20
2023-05-09T06:18:40.576Z,11.20
2023-05-09T06:20:40.544Z,11.20
2023-05-09T06:22:40.596Z,11.20
2023-05-09T06:24:42.553Z,11.30
2023-05-09T06:26:40.607Z,11.50
2023-05-09T06:28:40.523Z,11.50
2023-05-09T06:30:40.640Z,11.70
2023-05-09T06:32:40.709Z,11.80
2023-05-09T06:34:40.695Z,11.80
2023-05-09T06:36:40.604Z,11.80
2023-05-09T06:38:40.544Z,11.90
2023-05-09T06:40:40.617Z,11.90
2023-05-09T06:42:40.559Z,12.10
2023-05-09T06:44:40.619Z,12.20
2023-05-09T06:46:40.667Z,12.20
2023-05-09T06:48:43.498Z,12.30
2023-05-09T06:50:40.600Z,12.30
2023-05-09T06:52:40.620Z,12.30
2023-05-09T06:54:40.627Z,12.20
2023-05-09T06:57:40.630Z,12.20
2023-05-09T06:59:40.626Z,12.20
2023-05-09T07:01:40.692Z,12.10
2023-05-09T07:03:40.683Z,12.10
2023-05-09T07:04:43.732Z,12.10
2023-05-09T07:07:40.623Z,12.30
2023-05-09T07:09:40.636Z,12.30
2023-05-09T07:11:40.585Z,12.40
2023-05-09T07:13:40.635Z,12.40
2023-05-09T07:15:42.537Z,12.50
2023-05-09T07:17:40.678Z,12.60
2023-05-09T07:19:40.585Z,12.60
2023-05-09T07:21:40.630Z,13.00
2023-05-09T07:23:40.678Z,13.10
2023-05-09T07:25:40.649Z,13.40
2023-05-09T07:27:40.679Z,13.60
2023-05-09T07:29:40.671Z,13.60
2023-05-09T07:31:40.669Z,14.00
2023-05-09T07:33:40.720Z,14.40
2023-05-09T07:35:43.920Z,14.60
2023-05-09T07:37:40.708Z,14.60
2023-05-09T07:39:40.678Z,15.00
2023-05-09T07:41:44.250Z,15.40
2023-05-09T07:43:40.657Z,15.40
2023-05-09T07:45:40.602Z,15.70
2023-05-09T07:47:40.819Z,15.70
2023-05-09T07:49:40.609Z,16.10
2023-05-09T07:51:40.616Z,16.40
2023-05-09T07:53:40.850Z,16.50
2023-05-09T07:55:40.743Z,16.70
2023-05-09T07:57:40.941Z,16.70
2023-05-09T08:01:52.319Z,17.20
2023-05-09T08:03:52.402Z,17.30
2023-05-09T08:05:55.212Z,17.30
2023-05-09T08:07:52.275Z,17.70
2023-05-09T08:09:52.338Z,17.70
2023-05-09T08:11:52.298Z,17.50
2023-05-09T08:13:52.320Z,17.40
2023-05-09T08:15:52.929Z,17.40
2023-05-09T08:17:52.480Z,17.80
2023-05-09T08:19:52.338Z,18.10
2023-05-09T08:21:52.432Z,18.00
2023-05-09T08:23:52.373Z,18.00
2023-05-09T08:25:52.587Z,18.00
2023-05-09T08:27:53.138Z,17.70
2023-05-09T08:29:52.310Z,17.70
2023-05-09T08:31:52.322Z,17.90
2023-05-09T08:33:52.448Z,17.90
2023-05-09T08:35:52.337Z,17.90
2023-05-09T08:37:52.353Z,18.00
2023-05-09T08:39:52.296Z,18.10
2023-05-09T08:41:52.586Z,18.50
2023-05-09T08:43:52.326Z,18.50
2023-05-09T08:45:52.359Z,18.70
2023-05-09T08:47:52.487Z,18.70
2023-05-09T08:49:57.259Z,18.80
2023-05-09T08:51:52.386Z,19.10
2023-05-09T08:53:52.424Z,19.10
2023-05-09T08:55:52.378Z,19.40
2023-05-09T08:57:52.422Z,19.50
2023-05-09T08:59:52.441Z,19.90
2023-05-09T09:01:52.463Z,19.90
2023-05-09T09:03:52.385Z,20.00
2023-05-09T09:05:52.640Z,20.00
2023-05-09T09:07:55.329Z,19.50
2023-05-09T09:09:52.393Z,19.20
2023-05-09T09:11:52.342Z,19.20
2023-05-09T09:13:52.481Z,19.20
2023-05-09T09:15:52.415Z,19.20
2023-05-09T09:17:52.448Z,19.40
2023-05-09T09:19:52.409Z,19.80
2023-05-09T09:21:52.428Z,19.80
2023-05-09T09:23:52.353Z,20.00
2023-05-09T09:25:52.461Z,19.90
2023-05-09T09:27:52.430Z,19.60
2023-05-09T09:29:55.761Z,19.60
2023-05-09T09:31:52.455Z,19.60
2023-05-09T09:33:52.746Z,19.20
2023-05-09T09:35:52.376Z,19.20
2023-05-09T09:37:57.853Z,19.80
2023-05-09T09:39:52.341Z,19.80
2023-05-09T09:41:55.375Z,19.80
2023-05-09T09:43:52.496Z,20.10
2023-05-09T09:45:52.446Z,20.10
2023-05-09T09:47:52.452Z,20.60
2023-05-09T09:49:52.424Z,20.60
2023-05-09T09:51:52.409Z,20.50
2023-05-09T09:53:52.530Z,20.50
2023-05-09T09:55:52.375Z,20.40
2023-05-09T09:57:53.593Z,20.00
2023-05-09T09:59:52.514Z,20.00
2023-05-09T10:01:52.439Z,20.70
2023-05-09T10:03:52.507Z,20.50
2023-05-09T10:05:52.422Z,20.50
2023-05-09T10:07:52.378Z,20.50
2023-05-09T10:09:52.419Z,20.70
2023-05-09T10:11:52.400Z,20.60
2023-05-09T10:13:52.447Z,20.70
2023-05-09T10:15:54.003Z,21.00
2023-05-09T10:17:52.521Z,21.00
2023-05-09T10:19:52.505Z,20.90
2023-05-09T10:21:52.405Z,21.10
2023-05-09T10:23:52.521Z,21.30
2023-05-09T10:25:52.553Z,21.30
2023-05-09T10:27:52.487Z,21.30
2023-05-09T10:29:54.330Z,20.70
2023-05-09T10:31:52.678Z,20.60
2023-05-09T10:33:52.532Z,20.90
2023-05-09T10:35:52.720Z,20.90
2023-05-09T10:37:52.474Z,20.90
2023-05-09T10:39:52.402Z,20.90
2023-05-09T10:41:52.538Z,21.20
2023-05-09T10:43:55.342Z,21.20
2023-05-09T10:45:52.745Z,21.20
2023-05-09T10:47:52.531Z,21.00
2023-05-09T10:49:52.520Z,21.00
2023-05-09T10:51:52.431Z,20.40
2023-05-09T10:53:52.543Z,20.50
2023-05-09T10:55:52.486Z,20.50
2023-05-09T10:57:52.438Z,20.70
2023-05-09T10:59:53.691Z,21.00
2023-05-09T11:01:52.816Z,20.90
2023-05-09T11:03:52.495Z,20.90
2023-05-09T11:05:53.496Z,21.20
2023-05-09T11:07:52.655Z,21.20
2023-05-09T11:09:52.569Z,21.00
2023-05-09T11:11:52.908Z,20.50
2023-05-09T11:13:52.607Z,20.50
2023-05-09T11:15:52.602Z,20.30
2023-05-09T11:17:52.584Z,20.80
2023-05-09T11:19:52.536Z,20.90
2023-05-09T11:21:52.584Z,21.40
2023-05-09T11:23:54.988Z,21.40
2023-05-09T11:25:52.496Z,21.40
2023-05-09T11:27:52.520Z,21.50
2023-05-09T11:29:52.514Z,21.20
2023-05-09T11:31:52.714Z,20.90
2023-05-09T11:34:52.485Z,21.00
2023-05-09T11:36:53.560Z,21.00
2023-05-09T11:38:52.567Z,21.40
2023-05-09T11:40:54.771Z,22.00
2023-05-09T11:42:52.755Z,21.80
2023-05-09T11:44:52.536Z,21.60
2023-05-09T11:46:52.564Z,21.60
2023-05-09T11:48:53.027Z,21.60
2023-05-09T11:50:52.550Z,21.60
2023-05-09T11:52:52.509Z,21.90
2023-05-09T11:54:52.637Z,21.90
2023-05-09T11:56:52.546Z,21.90
2023-05-09T11:58:52.530Z,21.70
2023-05-09T12:00:52.504Z,22.00
2023-05-09T12:02:52.700Z,21.50
2023-05-09T12:04:52.635Z,21.50
2023-05-09T12:06:52.532Z,21.70
2023-05-09T12:08:52.632Z,22.00
2023-05-09T12:10:52.516Z,22.00
2023-05-09T12:12:52.724Z,21.40
2023-05-09T12:14:52.614Z,21.40
2023-05-09T12:16:55.880Z,20.80
2023-05-09T12:18:52.632Z,21.00
2023-05-09T12:20:52.793Z,21.30
2023-05-09T12:22:52.512Z,21.40
2023-05-09T12:24:52.686Z,21.40
2023-05-09T12:26:52.640Z,21.40
2023-05-09T12:28:52.540Z,21.40
2023-05-09T12:30:52.836Z,20.90
2023-05-09T12:32:52.661Z,20.90
2023-05-09T12:34:52.549Z,20.90
2023-05-09T12:36:52.620Z,21.20
2023-05-09T12:38:52.538Z,21.30
2023-05-09T12:40:52.683Z,20.80
2023-05-09T12:42:54.161Z,20.80
2023-05-09T12:44:52.946Z,21.10
2023-05-09T12:46:52.652Z,21.00
2023-05-09T12:48:52.621Z,21.10
2023-05-09T12:50:52.553Z,20.90
2023-05-09T12:53:02.689Z,20.90
2023-05-09T12:54:52.655Z,20.60
2023-05-09T12:56:52.749Z,20.10
2023-05-09T12:58:52.662Z,20.20
2023-05-09T13:00:52.681Z,20.40
2023-05-09T13:02:52.716Z,20.40
2023-05-09T13:04:52.594Z,20.20
2023-05-09T13:06:52.667Z,20.40
2023-05-09T13:08:52.550Z,20.40
2023-05-09T13:10:57.851Z,20.40
2023-05-09T13:12:52.584Z,21.10
2023-05-09T13:14:52.601Z,21.10
2023-05-09T13:16:52.711Z,20.80
2023-05-09T13:18:55.527Z,20.40
2023-05-09T13:20:53.282Z,20.40
2023-05-09T13:22:52.608Z,20.40
2023-05-09T13:24:52.822Z,20.50
2023-05-09T13:26:52.629Z,20.50
2023-05-09T13:28:52.578Z,20.70
2023-05-09T13:30:52.619Z,20.70
2023-05-09T13:32:52.644Z,20.40
2023-05-09T13:34:52.721Z,20.30
2023-05-09T13:36:52.748Z,20.40
2023-05-09T13:38:52.642Z,20.40
2023-05-09T13:40:52.710Z,20.40
2023-05-09T13:42:52.580Z,20.40
2023-05-09T13:44:52.773Z,20.20
2023-05-09T13:46:52.683Z,20.10
2023-05-09T13:48:52.622Z,20.10
2023-05-09T13:50:52.824Z,20.10
2023-05-09T13:52:52.810Z,20.40
2023-05-09T13:54:52.700Z,20.40
2023-05-09T13:56:52.618Z,20.30
2023-05-09T13:58:52.709Z,20.30
2023-05-09T14:00:52.580Z,20.40
2023-05-09T14:02:52.830Z,20.40
2023-05-09T14:04:52.711Z,20.40
2023-05-09T14:06:53.229Z,20.40
2023-05-09T14:11:08.595Z,20.20
2023-05-09T14:13:08.648Z,20.00
2023-05-09T14:15:08.459Z,20.20
2023-05-09T14:17:08.810Z,20.20
2023-05-09T14:19:08.480Z,20.30
2023-05-09T14:21:08.747Z,20.40
2023-05-09T14:23:08.437Z,20.20
2023-05-09T14:25:08.437Z,20.20
2023-05-09T14:27:08.553Z,20.20
2023-05-09T14:29:08.543Z,20.20
2023-05-09T14:31:09.062Z,20.20
2023-05-09T14:33:08.564Z,20.20
2023-05-09T14:35:08.545Z,20.30
2023-05-09T14:37:08.552Z,20.30
2023-05-09T14:39:08.728Z,20.20
2023-05-09T14:41:08.561Z,19.90
2023-05-09T14:43:08.536Z,19.90
2023-05-09T14:45:08.666Z,19.90
2023-05-09T14:47:08.824Z,20.00
2023-05-09T14:49:08.510Z,19.90
2023-05-09T14:51:11.806Z,20.00
2023-05-09T14:53:08.543Z,20.20
2023-05-09T14:55:08.456Z,20.20
2023-05-09T14:57:08.722Z,20.10
2023-05-09T14:59:08.934Z,20.00
2023-05-09T15:01:08.630Z,20.00
2023-05-09T15:03:12.512Z,20.10
2023-05-09T15:05:10.630Z,20.10
2023-05-09T15:07:11.269Z,20.10
2023-05-09T15:09:08.691Z,20.00
2023-05-09T15:11:08.559Z,20.00
2023-05-09T15:13:08.576Z,20.00
2023-05-09T15:15:08.527Z,20.00
2023-05-09T15:17:08.675Z,20.00
2023-05-09T15:19:08.879Z,20.10
2023-05-09T15:21:09.512Z,20.20
2023-05-09T15:23:08.791Z,20.20
2023-05-09T15:25:08.543Z,20.10
2023-05-09T15:27:08.512Z,20.20
2023-05-09T15:29:08.593Z,20.40
2023-05-09T15:31:08.538Z,20.40
2023-05-09T15:33:08.744Z,20.40
2023-05-09T15:35:08.660Z,20.50
2023-05-09T15:37:08.605Z,20.30
2023-05-09T15:39:08.687Z,20.10
2023-05-09T15:41:08.690Z,20.10
2023-05-09T15:43:08.676Z,20.10
2023-05-09T15:45:08.577Z,20.20
2023-05-09T15:47:11.368Z,20.10
2023-05-09T15:49:08.712Z,20.00
2023-05-09T15:51:08.529Z,20.00
2023-05-09T15:53:11.623Z,20.00
2023-05-09T15:55:08.851Z,19.70
2023-05-09T15:57:08.579Z,19.70
2023-05-09T15:59:08.573Z,19.90
2023-05-09T16:01:08.709Z,19.90
2023-05-09T16:03:08.735Z,19.90
2023-05-09T16:05:08.560Z,19.80
2023-05-09T16:07:08.872Z,19.70
2023-05-09T16:09:08.812Z,19.70
2023-05-09T16:11:08.915Z,19.70
2023-05-09T16:13:10.003Z,19.80
2023-05-09T16:15:08.840Z,19.80
2023-05-09T16:17:08.559Z,19.70
2023-05-09T16:19:08.733Z,19.70
2023-05-09T16:21:08.688Z,19.60
2023-05-09T16:23:08.565Z,19.60
2023-05-09T16:26:08.836Z,19.50
2023-05-09T16:28:10.102Z,19.60
2023-05-09T16:30:08.587Z,19.50
2023-05-09T16:32:08.784Z,19.50
2023-05-09T16:34:08.706Z,19.50
2023-05-09T16:35:12.487Z,19.40
2023-05-09T16:38:08.768Z,19.40
2023-05-09T16:40:08.641Z,19.30
2023-05-09T16:42:08.643Z,19.30
2023-05-09T16:44:08.626Z,19.30
2023-05-09T16:46:08.652Z,19.20
2023-05-09T16:48:08.622Z,19.20
2023-05-09T16:50:08.620Z,19.10
2023-05-09T16:52:09.695Z,19.10
2023-05-09T16:54:08.688Z,19.10
2023-05-09T16:56:08.594Z,19.00
2023-05-09T16:58:08.564Z,19.00
2023-05-09T17:00:08.646Z,19.00
2023-05-09T17:02:09.477Z,19.00
2023-05-09T17:04:08.673Z,18.90
2023-05-09T17:06:08.718Z,18.80
2023-05-09T17:08:10.368Z,18.80
2023-05-09T17:10:08.722Z,18.80
2023-05-09T17:12:08.582Z,18.80
2023-05-09T17:14:08.609Z,18.80
2023-05-09T17:16:08.663Z,18.70
2023-05-09T17:18:08.641Z,18.70
2023-05-09T17:20:08.649Z,18.70
2023-05-09T17:22:08.671Z,18.70
2023-05-09T17:24:08.651Z,18.60
2023-05-09T17:26:12.969Z,18.60
2023-05-09T17:28:08.606Z,18.50
2023-05-09T17:30:08.695Z,18.50
2023-05-09T17:32:08.589Z,18.40
2023-05-09T17:34:08.808Z,18.40
2023-05-09T17:36:08.583Z,18.40
2023-05-09T17:38:08.667Z,18.40
2023-05-09T17:40:08.649Z,18.40
2023-05-09T17:42:08.648Z,18.30
2023-05-09T17:44:08.616Z,18.30
2023-05-09T17:46:08.919Z,18.20
2023-05-09T17:48:09.324Z,18.20
2023-05-09T17:50:08.777Z,18.20
2023-05-09T17:52:08.594Z,18.10
2023-05-09T17:54:08.658Z,18.10
2023-05-09T17:56:08.655Z,17.90
2023-05-09T17:58:12.285Z,17.90
2023-05-09T18:00:08.799Z,17.80
2023-05-09T18:02:08.607Z,17.70
2023-05-09T18:04:08.601Z,17.70
2023-05-09T18:06:11.512Z,17.70
2023-05-09T18:08:08.620Z,17.70
2023-05-09T18:10:08.616Z,17.70
2023-05-09T18:12:08.820Z,17.70
2023-05-09T18:14:08.634Z,17.70
2023-05-09T18:16:08.719Z,17.70
2023-05-09T18:18:08.715Z,17.60
2023-05-09T18:20:08.847Z,17.70
2023-05-09T18:22:08.645Z,17.60
2023-05-09T18:24:08.643Z,17.60
2023-05-09T18:26:08.730Z,17.60
2023-05-09T18:28:11.540Z,17.50
2023-05-09T18:30:08.705Z,17.50
2023-05-09T18:32:08.910Z,17.40
2023-05-09T18:34:12.510Z,17.40
2023-05-09T18:36:08.725Z,17.40
2023-05-09T18:38:08.754Z,17.30
2023-05-09T18:40:08.866Z,16.60
2023-05-09T18:42:08.785Z,15.70
2023-05-09T18:44:08.669Z,15.70
2023-05-09T18:46:08.697Z,15.10
2023-05-09T18:48:08.747Z,14.80
2023-05-09T18:50:08.816Z,14.50
2023-05-09T18:52:08.683Z,14.10
2023-05-09T18:54:08.696Z,14.10
2023-05-09T18:56:08.834Z,13.90
2023-05-09T18:58:08.748Z,13.80
2023-05-09T19:00:08.678Z,13.80
2023-05-09T19:02:08.672Z,13.80
2023-05-09T19:04:08.795Z,13.80
2023-05-09T19:06:08.721Z,13.80
2023-05-09T19:08:09.027Z,13.70
2023-05-09T19:10:08.757Z,13.70
2023-05-09T19:12:08.674Z,13.70
2023-05-09T19:14:08.808Z,13.60
2023-05-09T19:16:08.798Z,13.60
2023-05-09T19:18:08.786Z,13.50
2023-05-09T19:20:08.720Z,13.50
2023-05-09T19:22:08.812Z,13.50
2023-05-09T19:24:08.734Z,13.50
2023-05-09T19:26:08.721Z,13.40
2023-05-09T19:28:08.785Z,13.30
2023-05-09T19:30:12.036Z,13.30
2023-05-09T19:32:10.266Z,13.30
2023-05-09T19:34:08.843Z,13.30
2023-05-09T19:36:08.964Z,13.30
2023-05-09T19:38:08.931Z,13.20
2023-05-09T19:40:08.866Z,13.20
2023-05-09T19:42:08.810Z,13.20
2023-05-09T19:44:08.785Z,13.20
2023-05-09T19:46:08.800Z,13.20
2023-05-09T19:48:08.809Z,13.10
2023-05-09T19:50:08.764Z,13.10
2023-05-09T19:52:08.683Z,13.00
2023-05-09T19:54:08.799Z,13.00
2023-05-09T19:56:08.861Z,13.00
2023-05-09T19:58:08.873Z,12.90
2023-05-09T20:00:08.770Z,12.90
2023-05-09T20:02:08.857Z,12.90
2023-05-09T20:04:08.947Z,13.00
2023-05-09T20:06:08.870Z,13.00
2023-05-09T20:10:20.010Z,13.00
2023-05-09T20:12:19.987Z,13.00
2023-05-09T20:14:20.017Z,13.00
2023-05-09T20:16:20.149Z,13.00
2023-05-09T20:18:19.999Z,13.00
2023-05-09T20:20:24.871Z,13.10
2023-05-09T20:22:20.023Z,13.10
2023-05-09T20:24:20.177Z,13.20
2023-05-09T20:26:20.122Z,13.20
2023-05-09T20:28:20.059Z,13.20
2023-05-09T20:30:19.977Z,13.20
2023-05-09T20:32:20.001Z,13.20
2023-05-09T20:34:19.997Z,13.20
2023-05-09T20:36:20.062Z,13.20
2023-05-09T20:38:20.043Z,13.20
2023-05-09T20:40:20.003Z,13.20
2023-05-09T20:42:20.020Z,13.10
2023-05-09T20:44:20.458Z,13.10
2023-05-09T20:46:20.027Z,13.10
2023-05-09T20:48:20.116Z,13.10
2023-05-09T20:51:20.062Z,13.10
2023-05-09T20:53:20.031Z,13.00
2023-05-09T20:55:19.992Z,13.00
2023-05-09T20:57:20.122Z,13.00
2023-05-09T20:59:20.068Z,13.00
2023-05-09T21:01:20.059Z,13.00
2023-05-09T21:03:20.157Z,13.00
2023-05-09T21:05:20.106Z,12.90
2023-05-09T21:07:20.045Z,12.90
2023-05-09T21:09:20.496Z,12.90
2023-05-09T21:11:20.021Z,12.90
2023-05-09T21:13:20.094Z,12.90
2023-05-09T21:15:20.025Z,12.90
2023-05-09T21:17:20.222Z,12.90
2023-05-09T21:19:20.030Z,12.90
2023-05-09T21:21:20.021Z,12.90
2023-05-09T21:23:20.089Z,12.90
2023-05-09T21:25:20.072Z,12.90
2023-05-09T21:27:20.183Z,12.90
2023-05-09T21:29:20.143Z,12.90
2023-05-09T21:31:20.064Z,12.90
2023-05-09T21:33:23.737Z,12.90
2023-05-09T21:35:20.096Z,12.90
2023-05-09T21:37:20.068Z,12.90
2023-05-09T21:39:20.187Z,12.90
2023-05-09T21:41:20.112Z,12.80
2023-05-09T21:43:20.199Z,12.80
2023-05-09T21:45:20.184Z,12.80
2023-05-09T21:47:22.922Z,12.80
2023-05-09T21:49:20.974Z,12.80
2023-05-09T21:51:20.170Z,12.80
2023-05-09T21:53:20.024Z,12.80
2023-05-09T21:55:20.064Z,12.80
2023-05-09T21:57:20.051Z,12.80
2023-05-09T21:59:20.029Z,12.80
2023-05-09T22:01:20.185Z,12.80
2023-05-09T22:03:20.383Z,12.80
2023-05-09T22:05:20.093Z,12.80
2023-05-09T22:07:20.036Z,12.80
2023-05-09T22:09:20.100Z,12.80
2023-05-09T22:11:20.096Z,12.80
2023-05-09T22:13:20.211Z,12.80
2023-05-09T22:15:20.169Z,12.80
2023-05-09T22:17:20.308Z,12.70
2023-05-09T22:19:20.400Z,12.70
2023-05-09T22:21:20.048Z,12.70
2023-05-09T22:23:20.078Z,12.80
2023-05-09T22:25:20.055Z,12.80
2023-05-09T22:27:20.151Z,12.80
2023-05-09T22:29:20.117Z,12.80
2023-05-09T22:31:20.272Z,12.80
2023-05-09T22:33:20.056Z,12.80
2023-05-09T22:35:23.378Z,12.80
2023-05-09T22:37:20.095Z,12.80
2023-05-09T22:39:20.128Z,12.80
2023-05-09T22:41:20.120Z,12.70
2023-05-09T22:43:20.076Z,12.70
2023-05-09T22:45:20.106Z,12.70
2023-05-09T22:47:20.378Z,12.70
2023-05-09T22:49:20.268Z,12.60
2023-05-09T22:51:20.150Z,12.60
2023-05-09T22:53:20.173Z,12.60
2023-05-09T22:55:20.082Z,12.60
2023-05-09T22:57:20.119Z,12.60
2023-05-09T22:59:20.323Z,12.60
2023-05-09T23:01:20.267Z,12.50
2023-05-09T23:03:20.185Z,12.50
2023-05-09T23:05:20.267Z,12.50
2023-05-09T23:07:20.091Z,12.50
2023-05-09T23:09:20.141Z,12.50
2023-05-09T23:11:20.419Z,12.40
2023-05-09T23:13:22.600Z,12.40
2023-05-09T23:15:20.188Z,12.40
2023-05-09T23:17:20.103Z,12.40
2023-05-09T23:19:20.102Z,12.40
2023-05-09T23:21:20.126Z,12.40
2023-05-09T23:23:20.157Z,12.30
2023-05-09T23:25:20.131Z,12.30
2023-05-09T23:27:20.204Z,12.30
2023-05-09T23:29:20.099Z,12.20
2023-05-09T23:31:20.336Z,12.20
2023-05-09T23:33:20.172Z,12.20
2023-05-09T23:35:20.557Z,12.20
2023-05-09T23:37:22.942Z,12.20
2023-05-09T23:39:20.221Z,12.10
2023-05-09T23:41:20.184Z,12.10
2023-05-09T23:43:20.332Z,12.10
2023-05-09T23:45:20.169Z,12.10
2023-05-09T23:47:20.835Z,12.10
2023-05-09T23:49:20.139Z,12.10
2023-05-09T23:51:20.323Z,12.00
2023-05-09T23:53:20.160Z,12.00
2023-05-09T23:55:20.272Z,12.00
2023-05-09T23:57:20.217Z,12.00
2023-05-09T23:59:20.250Z,12.00
